Time;durP1;ratioP1;P1;durP2;ratioP2;P2;SDS_P1;SDS_P2;PMS_P1;PMS_P2;Temp;Humidity;BMP_temperature;BMP_pressure;BME280_temperature;BME280_humidity;BME280_pressure;Samples;Min_cycle;Max_cycle;Signal;HPM_P1;HPM_P2
2023/02/15 00:00:13;;;;;;;45.72;34.92;;;7.60;99.90;;;;;;5113385;28;20508;-49
2023/02/15 00:02:39;;;;;;;39.88;30.08;;;7.50;99.90;;;;;;5095672;28;20032;-49
2023/02/15 00:05:05;;;;;;;33.38;25.60;;;7.60;99.90;;;;;;5122264;28;20051;-50
2023/02/15 00:07:31;;;;;;;32.00;22.00;;;7.50;99.90;;;;;;5090744;28;20043;-48
2023/02/15 00:09:57;;;;;;;31.20;23.25;;;7.50;99.90;;;;;;5131584;28;20035;-49
2023/02/15 00:12:22;;;;;;;31.60;23.85;;;7.60;99.90;;;;;;5133826;28;20019;-49
2023/02/15 00:14:48;;;;;;;35.63;25.65;;;7.60;99.90;;;;;;5129780;27;20029;-49
2023/02/15 00:17:14;;;;;;;31.05;23.52;;;7.40;99.90;;;;;;5122948;28;20475;-49
2023/02/15 00:19:39;;;;;;;31.25;24.05;;;7.40;99.90;;;;;;5122902;27;20114;-49
2023/02/15 00:22:05;;;;;;;37.05;24.38;;;7.40;99.90;;;;;;5134371;27;20027;-50
2023/02/15 00:24:32;;;;;;;34.10;24.55;;;7.40;99.90;;;;;;5118944;27;20031;-50
2023/02/15 00:26:57;;;;;;;34.05;25.02;;;7.40;99.90;;;;;;5138092;27;20031;-49
2023/02/15 00:29:24;;;;;;;34.28;24.80;;;7.40;99.90;;;;;;5137955;27;20562;-50
2023/02/15 00:31:50;;;;;;;32.88;24.67;;;7.40;99.90;;;;;;5119505;27;20041;-48
2023/02/15 00:34:21;;;;;;;34.50;25.60;;;7.40;99.90;;;;;;5119282;27;20118;-48
2023/02/15 00:36:48;;;;;;;34.28;24.48;;;7.30;99.90;;;;;;5137488;27;20032;-49
2023/02/15 00:39:14;;;;;;;30.00;22.35;;;7.30;99.90;;;;;;5137861;27;20035;-49
2023/02/15 00:41:41;;;;;;;39.25;27.13;;;7.30;99.90;;;;;;5137426;27;20023;-50
2023/02/15 00:44:07;;;;;;;30.90;21.98;;;7.30;99.90;;;;;;5137686;27;20106;-49
2023/02/15 00:46:33;;;;;;;31.45;23.05;;;7.30;99.90;;;;;;5137742;27;20030;-50
2023/02/15 00:48:59;;;;;;;33.90;23.65;;;7.30;99.90;;;;;;5137676;27;20023;-50
2023/02/15 00:51:26;;;;;;;38.75;23.98;;;7.30;99.90;;;;;;5137790;27;20088;-49
2023/02/15 00:53:52;;;;;;;36.72;23.92;;;7.30;99.90;;;;;;5080616;28;20046;-49
2023/02/15 00:56:18;;;;;;;32.45;22.50;;;7.30;99.90;;;;;;5114632;28;20129;-49
2023/02/15 00:58:44;;;;;;;31.52;22.30;;;7.20;99.90;;;;;;5114447;28;20115;-47
2023/02/15 01:01:13;;;;;;;31.65;21.73;;;7.10;99.90;;;;;;5114671;28;20030;-48
2023/02/15 01:03:41;;;;;;;27.70;20.70;;;7.20;99.90;;;;;;5114676;28;20088;-48
2023/02/15 01:06:08;;;;;;;28.13;19.83;;;7.20;99.90;;;;;;5114549;28;20027;-48
2023/02/15 01:08:33;;;;;;;30.15;20.65;;;7.10;99.90;;;;;;5114544;28;20044;-50
2023/02/15 01:11:07;;;;;;;30.88;21.25;;;7.10;99.90;;;;;;5063425;28;20050;-49
2023/02/15 01:13:34;;;;;;;29.45;20.23;;;7.10;99.90;;;;;;5114494;28;20040;-50
2023/02/15 01:16:00;;;;;;;24.75;18.42;;;7.00;99.90;;;;;;5114170;28;20577;-50
2023/02/15 01:18:26;;;;;;;26.67;19.27;;;7.00;99.90;;;;;;5113947;28;20043;-49
2023/02/15 01:20:52;;;;;;;25.60;18.23;;;7.00;99.90;;;;;;5114179;28;20039;-48
2023/02/15 01:23:18;;;;;;;27.05;18.58;;;7.00;99.90;;;;;;5046863;28;20090;-50
2023/02/15 01:25:43;;;;;;;23.45;17.40;;;6.90;99.90;;;;;;5133989;27;20031;-48
2023/02/15 01:28:09;;;;;;;26.67;19.55;;;6.80;99.90;;;;;;5117781;27;20063;-50
2023/02/15 01:30:35;;;;;;;24.80;18.25;;;6.80;99.90;;;;;;5117620;27;20108;-50
2023/02/15 01:33:00;;;;;;;24.67;18.90;;;6.80;99.90;;;;;;5136863;27;20023;-48
2023/02/15 01:35:27;;;;;;;27.65;21.05;;;6.70;99.90;;;;;;5117076;27;20035;-50
2023/02/15 01:37:54;;;;;;;33.05;22.92;;;6.80;99.90;;;;;;5136602;27;20098;-50
2023/02/15 01:40:20;;;;;;;25.23;19.67;;;6.80;99.90;;;;;;5137086;27;20451;-50
2023/02/15 01:42:45;;;;;;;25.48;19.45;;;6.80;99.90;;;;;;5117663;27;20035;-49
2023/02/15 01:45:19;;;;;;;24.48;18.42;;;6.90;99.90;;;;;;5117260;27;20494;-49
2023/02/15 01:47:51;;;;;;;29.77;19.75;;;6.90;99.90;;;;;;5136436;27;20088;-49
2023/02/15 01:50:40;;;;;;;28.08;20.45;;;6.90;99.90;;;;;;5136267;27;20039;-50
2023/02/15 01:53:21;;;;;;;29.25;20.85;;;7.00;99.90;;;;;;5136350;27;20027;-49
2023/02/15 01:55:53;;;;;;;25.50;19.52;;;6.90;99.90;;;;;;5134528;27;20080;-48
2023/02/15 01:58:21;;;;;;;30.27;19.42;;;7.00;99.90;;;;;;5136510;27;20023;-49
2023/02/15 02:00:47;;;;;;;26.80;18.83;;;7.00;99.90;;;;;;5116999;27;20057;-48
2023/02/15 02:03:13;;;;;;;29.33;21.13;;;6.90;99.90;;;;;;5136132;27;20402;-48
2023/02/15 02:05:40;;;;;;;25.60;18.10;;;6.90;99.90;;;;;;5136138;27;20023;-51
2023/02/15 02:08:09;;;;;;;26.85;19.10;;;6.90;99.90;;;;;;5136244;27;20055;-50
2023/02/15 02:10:35;;;;;;;27.15;19.65;;;6.90;99.90;;;;;;5135937;27;20045;-49
2023/02/15 02:13:05;;;;;;;25.25;19.05;;;6.90;99.90;;;;;;5136001;27;20370;-49
2023/02/15 02:15:47;;;;;;;25.73;18.70;;;6.90;99.90;;;;;;5136019;27;20027;-50
2023/02/15 02:18:41;;;;;;;25.90;19.45;;;6.80;99.90;;;;;;5135839;27;20458;-48
2023/02/15 02:21:19;;;;;;;26.40;19.00;;;6.90;99.90;;;;;;5133969;27;20027;-49
2023/02/15 02:24:15;;;;;;;24.30;18.63;;;6.90;99.90;;;;;;5123376;27;20368;-50
2023/02/15 02:27:05;;;;;;;25.08;18.35;;;6.90;99.90;;;;;;5116098;28;20061;-48
2023/02/15 02:29:46;;;;;;;24.95;18.27;;;7.00;99.90;;;;;;5117884;28;20032;-49
2023/02/15 02:32:49;;;;;;;24.42;18.13;;;7.00;99.90;;;;;;5118049;28;20039;-48
2023/02/15 02:35:27;;;;;;;25.08;17.98;;;7.00;99.90;;;;;;5114948;28;20106;-50
2023/02/15 02:38:10;;;;;;;22.83;16.83;;;7.00;99.90;;;;;;5115268;28;20034;-50
2023/02/15 02:40:43;;;;;;;22.48;16.13;;;6.90;99.90;;;;;;5115199;28;20111;-49
2023/02/15 02:43:24;;;;;;;25.85;18.65;;;6.90;99.90;;;;;;5114967;28;20030;-49
2023/02/15 02:45:57;;;;;;;26.77;19.08;;;6.90;99.90;;;;;;5114751;28;20114;-49
2023/02/15 02:48:26;;;;;;;25.20;17.92;;;6.90;99.90;;;;;;5114718;28;20023;-48
2023/02/15 02:50:52;;;;;;;24.98;17.63;;;6.90;99.90;;;;;;5114953;28;20036;-48
2023/02/15 02:53:18;;;;;;;25.23;17.02;;;6.90;99.90;;;;;;5114482;28;20463;-49
2023/02/15 02:56:13;;;;;;;25.50;17.73;;;6.80;99.90;;;;;;5114693;28;20051;-49
2023/02/15 02:58:46;;;;;;;24.15;17.85;;;6.90;99.90;;;;;;5114327;28;20470;-49
2023/02/15 03:01:22;;;;;;;23.98;18.50;;;6.90;99.90;;;;;;5078249;28;20368;-50
2023/02/15 03:03:55;;;;;;;24.20;17.95;;;7.00;99.90;;;;;;5114427;28;20493;-49
2023/02/15 03:07:21;;;;;;;24.35;17.90;;;7.00;99.90;;;;;;5114494;28;20023;-49
2023/02/15 03:09:51;;;;;;;24.45;17.50;;;7.10;99.90;;;;;;5051521;28;20044;-48
2023/02/15 03:12:28;;;;;;;25.38;18.73;;;7.10;99.90;;;;;;5051535;28;20032;-49
2023/02/15 03:15:17;;;;;;;24.67;18.20;;;7.00;99.90;;;;;;5051518;28;20029;-50
2023/02/15 03:17:46;;;;;;;22.70;17.65;;;7.00;99.90;;;;;;5051457;28;20033;-48
2023/02/15 03:20:27;;;;;;;24.20;18.38;;;7.00;99.90;;;;;;5051526;28;20029;-50
2023/02/15 03:23:07;;;;;;;27.15;18.95;;;7.10;99.90;;;;;;5051428;28;20491;-48
2023/02/15 03:25:40;;;;;;;23.55;17.67;;;7.10;99.90;;;;;;5018113;28;20033;-49
2023/02/15 03:28:14;;;;;;;24.00;17.38;;;7.10;99.90;;;;;;5051398;28;20555;-49
2023/02/15 03:30:44;;;;;;;24.42;17.80;;;7.10;99.90;;;;;;5051038;28;20040;-49
2023/02/15 03:33:12;;;;;;;25.27;18.67;;;7.10;99.90;;;;;;5051189;28;20039;-50
2023/02/15 03:35:50;;;;;;;24.13;18.70;;;7.10;99.90;;;;;;5051014;28;20488;-49
2023/02/15 03:38:22;;;;;;;24.95;17.67;;;7.10;99.90;;;;;;5051219;28;20531;-48
2023/02/15 03:43:37;;;;;;;25.50;17.63;;;7.20;99.90;;;;;;5087808;28;20362;-49
2023/02/15 03:46:20;;;;;;;41.45;26.52;;;7.20;99.90;;;;;;5113849;28;20104;-50
2023/02/15 03:48:55;;;;;;;30.08;21.02;;;7.30;99.90;;;;;;5111788;28;20043;-49
2023/02/15 03:51:35;;;;;;;23.65;17.30;;;7.20;99.90;;;;;;5113559;28;20466;-50
2023/02/15 04:02:51;;;;;;;27.42;19.08;;;7.10;99.90;;;;;;5113752;28;20073;-49
2023/02/15 04:05:16;;;;;;;25.17;18.35;;;7.10;99.90;;;;;;5111577;28;20061;-50
2023/02/15 04:07:42;;;;;;;24.80;18.35;;;7.10;99.90;;;;;;5094557;28;20479;-49
2023/02/15 04:12:52;;;;;;;23.00;16.90;;;7.10;99.90;;;;;;5113672;28;20084;-50
2023/02/15 04:18:03;;;;;;;27.50;18.13;;;7.10;99.90;;;;;;5113456;28;20034;-48
2023/02/15 04:25:57;;;;;;;25.13;18.20;;;7.20;99.90;;;;;;5113623;28;20437;-49
2023/02/15 04:28:22;;;;;;;25.40;17.95;;;7.30;99.90;;;;;;5113277;28;20027;-50
2023/02/15 04:30:48;;;;;;;26.77;19.13;;;7.20;99.90;;;;;;5111267;28;20093;-50
2023/02/15 04:33:14;;;;;;;24.17;17.48;;;7.20;99.90;;;;;;5113336;28;20542;-49
2023/02/15 04:35:39;;;;;;;23.75;17.95;;;7.20;99.90;;;;;;5113633;28;20053;-50
2023/02/15 04:38:05;;;;;;;25.25;18.20;;;7.30;99.90;;;;;;5113543;28;20055;-50
2023/02/15 04:40:31;;;;;;;31.58;21.73;;;7.30;99.90;;;;;;5113144;28;20096;-50
2023/02/15 04:42:57;;;;;;;30.73;20.05;;;7.30;99.90;;;;;;5113119;28;20039;-49
2023/02/15 04:45:22;;;;;;;39.47;24.13;;;7.30;99.90;;;;;;5113380;28;20537;-50
2023/02/15 04:47:49;;;;;;;31.38;21.33;;;7.30;99.90;;;;;;5060687;28;20039;-50
2023/02/15 04:50:15;;;;;;;25.05;18.33;;;7.20;99.90;;;;;;5112981;28;20036;-50
2023/02/15 04:52:40;;;;;;;23.83;17.17;;;7.20;99.90;;;;;;5113199;28;20023;-50
2023/02/15 04:55:06;;;;;;;23.85;17.30;;;7.20;99.90;;;;;;5113490;28;20031;-50
2023/02/15 04:57:32;;;;;;;25.85;17.60;;;7.10;99.90;;;;;;5094247;28;20126;-49
2023/02/15 04:59:58;;;;;;;28.55;20.45;;;7.10;99.90;;;;;;5112722;28;20124;-49
2023/02/15 05:02:24;;;;;;;48.70;32.25;;;7.00;99.90;;;;;;5113286;28;20106;-49
2023/02/15 05:04:50;;;;;;;29.20;20.75;;;7.10;99.90;;;;;;5113113;28;20082;-48
2023/02/15 05:07:16;;;;;;;26.45;18.60;;;7.10;99.90;;;;;;5077098;28;20028;-49
2023/02/15 05:09:42;;;;;;;25.75;17.45;;;7.10;99.90;;;;;;5115064;28;20348;-50
2023/02/15 05:12:07;;;;;;;22.77;17.58;;;7.10;99.90;;;;;;5116992;28;20364;-50
2023/02/15 05:14:33;;;;;;;24.00;16.85;;;7.10;99.90;;;;;;5116530;28;20020;-49
2023/02/15 05:17:01;;;;;;;23.05;16.92;;;7.00;99.90;;;;;;5116547;28;20019;-50
2023/02/15 05:19:27;;;;;;;24.17;18.17;;;7.10;99.90;;;;;;5097956;28;20046;-49
2023/02/15 05:21:53;;;;;;;24.30;18.35;;;7.10;99.90;;;;;;5116586;28;20024;-49
2023/02/15 05:29:47;;;;;;;29.08;20.25;;;7.00;99.90;;;;;;5116687;28;20035;-52
2023/02/15 05:32:14;;;;;;;32.30;22.70;;;6.90;99.90;;;;;;5116604;28;20024;-50
2023/02/15 05:34:39;;;;;;;32.30;23.17;;;6.90;99.90;;;;;;5119016;27;20027;-49
2023/02/15 05:37:05;;;;;;;29.80;22.80;;;6.80;99.90;;;;;;5121621;27;20123;-50
2023/02/15 05:39:31;;;;;;;32.38;22.48;;;6.70;99.90;;;;;;5116067;27;20471;-49
2023/02/15 05:41:59;;;;;;;31.55;21.70;;;6.60;99.90;;;;;;5116059;28;20041;-50
2023/02/15 05:44:45;;;;;;;26.65;19.35;;;6.70;99.90;;;;;;5113816;28;20515;-49
2023/02/15 05:47:10;;;;;;;30.20;21.33;;;6.60;99.90;;;;;;5097864;27;20081;-49
2023/02/15 05:49:36;;;;;;;31.60;20.40;;;6.60;99.90;;;;;;5082674;27;20229;-49
2023/02/15 05:52:03;;;;;;;33.22;21.77;;;6.60;99.90;;;;;;5134149;27;20098;-49
2023/02/15 05:54:29;;;;;;;32.20;20.20;;;6.60;99.90;;;;;;5134240;27;20051;-50
2023/02/15 05:56:54;;;;;;;24.95;19.95;;;6.50;99.90;;;;;;5095579;28;20110;-50
2023/02/15 05:59:20;;;;;;;26.45;20.23;;;6.50;99.90;;;;;;5115748;27;20134;-49
2023/02/15 06:01:46;;;;;;;24.90;17.52;;;6.40;99.90;;;;;;5099531;27;20060;-49
2023/02/15 06:04:12;;;;;;;26.08;19.42;;;6.40;99.90;;;;;;5133921;27;20035;-50
2023/02/15 06:06:38;;;;;;;28.25;19.85;;;6.40;99.90;;;;;;5134021;27;20035;-49
2023/02/15 06:09:04;;;;;;;27.35;19.40;;;6.30;99.90;;;;;;5066071;27;20035;-48
2023/02/15 06:11:30;;;;;;;41.10;22.88;;;6.40;99.90;;;;;;5133401;27;20050;-49
2023/02/15 06:13:55;;;;;;;31.55;23.50;;;6.50;99.90;;;;;;5133766;27;20031;-49
2023/02/15 06:16:21;;;;;;;69.35;48.80;;;6.50;99.90;;;;;;5120204;27;20031;-47
2023/02/15 06:18:47;;;;;;;83.05;56.50;;;6.50;99.90;;;;;;5115321;28;20030;-47
2023/02/15 06:21:13;;;;;;;102.82;68.53;;;6.50;99.90;;;;;;5115028;28;20028;-47
2023/02/15 06:23:39;;;;;;;247.45;143.35;;;6.50;99.90;;;;;;5115403;28;20034;-48
2023/02/15 06:26:04;;;;;;;48.17;33.08;;;6.60;99.90;;;;;;5115567;28;20059;-50
2023/02/15 06:28:30;;;;;;;62.03;38.25;;;6.40;99.90;;;;;;5096130;28;20116;-52
2023/02/15 06:30:56;;;;;;;66.68;43.95;;;6.50;99.90;;;;;;5112135;28;20031;-54
2023/02/15 06:33:22;;;;;;;68.38;45.92;;;6.60;99.90;;;;;;5115582;28;20024;-50
2023/02/15 06:35:48;;;;;;;117.90;82.82;;;6.70;99.90;;;;;;5115794;28;20034;-50
2023/02/15 06:38:13;;;;;;;117.18;76.78;;;6.90;99.90;;;;;;5115316;28;20107;-54
2023/02/15 06:40:39;;;;;;;68.10;47.05;;;7.10;99.90;;;;;;5131412;27;20491;-50
2023/02/15 06:43:05;;;;;;;71.15;48.80;;;7.50;99.90;;;;;;5113859;28;20449;-50
2023/02/15 06:45:30;;;;;;;55.40;37.60;;;8.30;99.90;;;;;;5096690;28;20379;-50
2023/02/15 06:47:56;;;;;;;58.33;40.33;;;8.50;99.90;;;;;;5114110;28;20035;-55
2023/02/15 06:50:22;;;;;;;53.33;38.08;;;9.70;99.90;;;;;;5115407;28;20088;-50
2023/02/15 06:52:47;;;;;;;72.45;45.63;;;9.90;99.90;;;;;;5113807;28;20036;-50
2023/02/15 06:55:13;;;;;;;157.20;79.60;;;11.10;99.90;;;;;;5115264;28;20049;-50
2023/02/15 06:57:39;;;;;;;135.50;78.68;;;;;;;;;;5113159;28;20035;-50
2023/02/15 07:00:05;;;;;;;71.57;51.25;;;;;;;;;;5109292;28;20043;-50
2023/02/15 07:02:32;;;;;;;93.25;54.17;;;14.60;99.90;;;;;;5093643;28;20028;-50
2023/02/15 07:04:57;;;;;;;57.30;41.22;;;15.10;99.90;;;;;;5094419;28;20039;-50
2023/02/15 07:07:23;;;;;;;45.47;32.45;;;15.60;99.00;;;;;;5091576;28;20048;-50
2023/02/15 07:09:49;;;;;;;47.95;33.75;;;16.00;97.90;;;;;;5092030;28;20081;-51
2023/02/15 07:14:59;;;;;;;85.20;55.38;;;14.50;96.30;;;;;;5091803;28;20187;-51
2023/02/15 07:17:28;;;;;;;92.22;62.53;;;16.10;96.30;;;;;;5074327;28;20177;-51
2023/02/15 07:19:54;;;;;;;105.38;69.88;;;16.40;95.30;;;;;;5075418;28;20526;-51
2023/02/15 07:22:20;;;;;;;97.40;67.47;;;15.70;94.80;;;;;;5093814;28;20016;-51
2023/02/15 07:24:45;;;;;;;62.13;47.20;;;16.80;95.60;;;;;;5094372;28;20028;-51
2023/02/15 07:27:11;;;;;;;74.15;54.72;;;18.20;94.60;;;;;;5091866;28;20046;-52
2023/02/15 07:29:37;;;;;;;61.58;48.75;;;;;;;;;;5093755;28;20432;-51
2023/02/15 07:32:03;;;;;;;56.10;43.80;;;18.70;93.00;;;;;;5093236;28;20035;-51
2023/02/15 07:34:29;;;;;;;52.10;38.15;;;;;;;;;;5093550;28;20028;-51
2023/02/15 07:36:55;;;;;;;56.17;41.53;;;;;;;;;;5093873;28;20016;-51
2023/02/15 07:39:21;;;;;;;53.80;39.80;;;;;;;;;;5108336;28;20395;-51
2023/02/15 07:41:47;;;;;;;38.20;30.23;;;21.80;90.50;;;;;;5093573;28;20024;-51
2023/02/15 07:44:14;;;;;;;40.45;31.27;;;;;;;;;;5093072;28;20392;-52
2023/02/15 07:46:40;;;;;;;39.20;28.55;;;;;;;;;;5093655;28;20024;-51
2023/02/15 07:49:06;;;;;;;35.10;26.90;;;;;;;;;;5108543;28;20080;-51
2023/02/15 07:51:32;;;;;;;36.90;28.13;;;22.10;83.40;;;;;;5108186;28;20459;-49
2023/02/15 07:53:57;;;;;;;37.38;28.63;;;21.70;84.10;;;;;;5092715;28;20028;-49
2023/02/15 07:56:23;;;;;;;33.03;26.15;;;22.70;84.50;;;;;;5093176;28;20058;-50
2023/02/15 07:58:52;;;;;;;31.80;25.75;;;23.10;83.40;;;;;;5097319;28;20384;-49
2023/02/15 08:01:20;;;;;;;30.95;24.88;;;23.10;80.50;;;;;;5080363;27;20051;-50
2023/02/15 08:03:46;;;;;;;27.70;21.98;;;;;;;;;;5134551;27;20065;-49
2023/02/15 08:06:13;;;;;;;25.25;22.10;;;;;;;;;;5134147;27;20031;-49
2023/02/15 08:08:40;;;;;;;24.38;21.77;;;25.30;77.40;;;;;;5125069;27;20034;-50
2023/02/15 08:11:25;;;;;;;20.45;18.33;;;25.70;77.70;;;;;;5113552;28;20035;-49
2023/02/15 08:13:53;;;;;;;22.85;19.75;;;25.70;75.70;;;;;;5094378;28;20074;-50
2023/02/15 08:16:43;;;;;;;21.02;17.65;;;25.80;74.80;;;;;;5070748;28;20110;-50
2023/02/15 08:19:16;;;;;;;20.33;18.25;;;25.10;73.00;;;;;;5091033;28;20036;-50
2023/02/15 08:21:44;;;;;;;22.65;18.70;;;25.20;74.00;;;;;;5090849;28;20032;-49
2023/02/15 08:24:11;;;;;;;20.88;18.60;;;25.00;73.60;;;;;;5090997;28;20038;-50
2023/02/15 08:26:38;;;;;;;20.25;17.55;;;;;;;;;;5090911;28;20130;-50
2023/02/15 08:29:06;;;;;;;19.38;16.73;;;25.60;97.70;;;;;;5090864;28;20069;-50
2023/02/15 08:31:32;;;;;;;17.90;15.93;;;;;;;;;;5090671;28;20044;-50
2023/02/15 08:33:58;;;;;;;17.73;15.88;;;25.80;83.90;;;;;;5090846;28;20059;-50
2023/02/15 08:36:27;;;;;;;17.77;15.98;;;24.10;69.80;;;;;;5090029;28;20040;-50
2023/02/15 08:38:53;;;;;;;18.00;16.20;;;;;;;;;;5090960;28;20065;-50
2023/02/15 08:41:24;;;;;;;18.02;16.23;;;;;;;;;;5090809;28;20040;-50
2023/02/15 08:43:53;;;;;;;18.70;16.75;;;23.70;69.80;;;;;;5092940;28;20032;-51
2023/02/15 08:46:20;;;;;;;19.50;17.52;;;23.70;71.90;;;;;;5076206;28;20082;-51
2023/02/15 08:48:46;;;;;;;20.05;17.90;;;;;;;;;;5094078;28;20028;-51
2023/02/15 08:51:26;;;;;;;17.10;15.00;;;25.40;80.00;;;;;;5094195;28;20108;-52
2023/02/15 08:53:55;;;;;;;16.20;14.60;;;25.20;68.70;;;;;;5094537;28;20415;-51
2023/02/15 08:56:24;;;;;;;17.20;15.50;;;25.40;68.30;;;;;;5053765;28;20056;-51
2023/02/15 08:58:50;;;;;;;16.13;14.43;;;;;;;;;;5053898;28;20037;-50
2023/02/15 09:01:18;;;;;;;13.45;12.05;;;25.50;91.50;;;;;;5054160;28;20544;-50
2023/02/15 09:03:45;;;;;;;19.02;17.10;;;25.60;67.40;;;;;;5020673;28;20068;-50
2023/02/15 09:06:11;;;;;;;22.92;18.17;;;25.80;67.30;;;;;;5053902;28;20041;-51
2023/02/15 09:08:37;;;;;;;16.92;15.23;;;26.10;67.10;;;;;;5053889;28;20052;-50
2023/02/15 09:11:16;;;;;;;16.33;14.73;;;25.70;67.10;;;;;;5053946;28;20103;-51
2023/02/15 09:13:42;;;;;;;17.27;15.48;;;26.20;66.50;;;;;;5053813;28;20052;-51
2023/02/15 09:16:10;;;;;;;19.58;17.48;;;26.60;65.90;;;;;;5053820;28;20123;-50
2023/02/15 09:18:37;;;;;;;16.70;14.98;;;;;;;;;;5053531;28;20049;-51
2023/02/15 09:21:13;;;;;;;16.95;15.25;;;25.10;65.40;;;;;;5052412;28;20037;-51
2023/02/15 09:23:40;;;;;;;17.17;15.50;;;;;;;;;;5071368;28;20040;-51
2023/02/15 09:26:16;;;;;;;24.27;19.65;;;26.60;64.90;;;;;;5093208;28;20036;-52
2023/02/15 09:28:43;;;;;;;15.73;14.13;;;26.50;65.40;;;;;;5091233;28;20114;-50
2023/02/15 09:31:17;;;;;;;25.67;21.05;;;26.80;65.00;;;;;;5093450;28;20051;-50
2023/02/15 09:33:44;;;;;;;16.83;14.50;;;;;;;;;;5114783;27;20031;-51
2023/02/15 09:36:19;;;;;;;51.45;40.38;;;;;;;;;;5136992;27;20118;-51
2023/02/15 09:38:46;;;;;;;185.45;128.32;;;;;;;;;;5136688;27;20027;-50
2023/02/15 09:41:35;;;;;;;135.88;96.65;;;24.50;83.60;;;;;;5136696;27;20039;-51
2023/02/15 09:44:12;;;;;;;76.78;61.47;;;;;;;;;;5136924;27;20027;-49
2023/02/15 09:46:59;;;;;;;18.38;16.58;;;23.70;95.40;;;;;;5136807;27;20091;-50
2023/02/15 09:49:25;;;;;;;16.58;14.98;;;;;;;;;;5136766;27;20118;-51
2023/02/15 09:51:58;;;;;;;17.30;15.50;;;;;;;;;;5136433;27;20069;-50
2023/02/15 09:54:58;;;;;;;17.73;15.93;;;25.00;65.10;;;;;;5135948;27;20035;-50
2023/02/15 09:58:09;;;;;;;18.13;16.23;;;24.60;66.20;;;;;;5117365;27;20092;-50
2023/02/15 10:00:41;;;;;;;22.13;17.93;;;23.60;66.20;;;;;;5072369;28;20082;-50
2023/02/15 10:03:25;;;;;;;;;;;24.10;66.50;;;;;;5073315;28;20277;-50
2023/02/15 10:06:03;;;;;;;28.60;25.20;;;24.50;66.30;;;;;;5071551;28;19966;-51
2023/02/15 10:09:01;;;;;;;21.45;19.25;;;24.80;66.30;;;;;;5071622;28;20186;-50
2023/02/15 10:12:03;;;;;;;21.10;18.92;;;24.40;65.60;;;;;;5011804;28;20054;-50
2023/02/15 10:14:53;;;;;;;19.33;17.50;;;24.80;71.00;;;;;;5011887;28;20029;-51
2023/02/15 10:17:40;;;;;;;22.42;20.25;;;24.60;65.90;;;;;;5011817;28;20505;-50
2023/02/15 10:20:10;;;;;;;18.75;16.85;;;;;;;;;;5011911;28;20139;-50
2023/02/15 10:22:51;;;;;;;18.65;16.85;;;25.00;74.00;;;;;;5000884;28;20049;-51
2023/02/15 10:25:38;;;;;;;18.13;16.33;;;25.20;74.70;;;;;;4992079;28;20038;-51
2023/02/15 10:28:15;;;;;;;18.85;16.95;;;24.00;65.00;;;;;;4992037;28;20038;-50
2023/02/15 10:30:53;;;;;;;19.30;17.33;;;23.40;66.70;;;;;;4995559;28;20049;-49
2023/02/15 10:33:33;;;;;;;25.67;23.08;;;23.20;72.00;;;;;;5002095;28;20394;-51
2023/02/15 10:36:31;;;;;;;19.83;17.88;;;23.60;67.20;;;;;;5001489;28;20792;-51
2023/02/15 10:39:02;;;;;;;18.70;16.80;;;23.30;69.00;;;;;;5050930;28;20083;-51
2023/02/15 10:41:59;;;;;;;21.73;19.67;;;24.10;73.70;;;;;;5051090;28;20043;-50
2023/02/15 10:44:38;;;;;;;19.98;18.00;;;;;;;;;;5021479;28;20042;-51
2023/02/15 10:47:07;;;;;;;18.80;16.80;;;;;;;;;;5013168;28;20141;-51
2023/02/15 10:49:50;;;;;;;19.23;17.23;;;23.70;66.40;;;;;;5122568;27;20509;-50
2023/02/15 10:52:19;;;;;;;18.70;16.77;;;23.50;72.90;;;;;;5122315;27;20039;-52
2023/02/15 10:55:18;;;;;;;19.70;17.23;;;22.90;67.60;;;;;;5097798;27;20039;-51
2023/02/15 10:58:13;;;;;;;18.75;16.85;;;22.80;67.70;;;;;;5041867;28;20037;-50
2023/02/15 11:00:44;;;;;;;17.00;15.40;;;;;;;;;;5048039;28;20554;-53
2023/02/15 11:03:28;;;;;;;20.88;18.50;;;;;;;;;;5048504;28;20413;-53
2023/02/15 11:06:10;;;;;;;18.38;16.42;;;24.10;94.90;;;;;;5046629;28;20029;-47
2023/02/15 11:08:48;;;;;;;23.17;20.80;;;24.20;84.20;;;;;;5007594;28;20069;-50
2023/02/15 11:11:34;;;;;;;20.25;17.90;;;;;;;;;;5025440;28;20041;-47
2023/02/15 11:14:12;;;;;;;16.15;14.45;;;23.70;93.50;;;;;;5031355;28;20095;-49
2023/02/15 11:16:41;;;;;;;17.85;16.05;;;;;;;;;;4992335;28;20117;-51
2023/02/15 11:19:23;;;;;;;17.77;15.98;;;19.50;72.20;;;;;;4992261;28;20047;-49
2023/02/15 11:21:57;;;;;;;20.25;15.20;;;20.50;69.30;;;;;;4996815;28;20226;-56
2023/02/15 11:24:27;;;;;;;16.92;15.23;;;;;;;;;;5000821;28;20042;-60
2023/02/15 11:27:03;;;;;;;17.10;15.38;;;21.80;96.90;;;;;;4983405;28;20042;-60
2023/02/15 11:29:45;;;;;;;17.67;15.88;;;22.20;68.40;;;;;;5005523;28;20070;-50
2023/02/15 11:32:18;;;;;;;18.10;16.30;;;22.00;68.10;;;;;;4991914;28;20087;-50
2023/02/15 11:35:02;;;;;;;18.23;16.42;;;21.70;69.20;;;;;;5055436;28;20048;-51
2023/02/15 11:37:50;;;;;;;16.85;15.15;;;21.90;68.10;;;;;;5091406;28;20455;-50
2023/02/15 11:40:23;;;;;;;15.88;14.38;;;22.50;68.60;;;;;;5110001;28;20092;-51
2023/02/15 11:42:51;;;;;;;14.63;13.18;;;22.60;67.90;;;;;;5113920;28;20028;-50
2023/02/15 11:45:30;;;;;;;14.00;12.60;;;21.00;67.90;;;;;;5115866;27;20493;-50
2023/02/15 11:47:58;;;;;;;28.13;16.88;;;20.80;68.50;;;;;;5115085;27;20126;-51
2023/02/15 11:50:27;;;;;;;14.48;12.98;;;21.70;68.80;;;;;;5134200;27;20043;-49
2023/02/15 11:53:01;;;;;;;14.48;12.75;;;22.10;67.60;;;;;;5134826;27;20461;-48
2023/02/15 11:55:29;;;;;;;14.73;13.23;;;21.40;67.30;;;;;;5122706;27;20081;-49
2023/02/15 11:58:02;;;;;;;17.20;15.50;;;;;;;;;;5131207;27;20038;-47
2023/02/15 12:00:31;;;;;;;15.05;13.57;;;;;;;;;;5133964;27;20502;-48
2023/02/15 12:02:57;;;;;;;16.27;13.98;;;;;;;;;;5132448;27;20050;-46
2023/02/15 12:05:25;;;;;;;14.98;13.48;;;;;;;;;;5134324;27;20381;-46
2023/02/15 12:08:17;;;;;;;15.25;13.20;;;20.90;94.30;;;;;;5134195;27;20386;-46
2023/02/15 12:10:49;;;;;;;14.73;13.23;;;;;;;;;;5133780;28;20088;-45
2023/02/15 12:13:18;;;;;;;15.00;13.50;;;21.60;95.80;;;;;;5134063;28;20084;-50
2023/02/15 12:15:49;;;;;;;16.17;14.00;;;21.40;90.70;;;;;;5134384;27;20039;-51
2023/02/15 12:18:38;;;;;;;17.75;13.75;;;21.10;70.40;;;;;;5135317;27;20027;-51
2023/02/15 12:21:14;;;;;;;17.15;14.65;;;21.50;86.40;;;;;;5138308;27;20385;-50
2023/02/15 12:23:50;;;;;;;19.20;15.60;;;20.90;81.60;;;;;;5138488;27;20110;-50
2023/02/15 12:26:28;;;;;;;16.27;14.57;;;20.70;85.20;;;;;;5122017;27;20036;-50
2023/02/15 12:28:57;;;;;;;16.38;14.55;;;20.00;74.00;;;;;;5117728;28;20379;-51
2023/02/15 12:31:27;;;;;;;15.65;13.48;;;;;;;;;;5116340;28;20051;-49
2023/02/15 12:33:56;;;;;;;15.32;13.32;;;20.00;71.50;;;;;;5117775;28;20479;-49
2023/02/15 12:36:24;;;;;;;16.48;13.93;;;;;;;;;;5117591;28;20028;-48
2023/02/15 12:39:12;;;;;;;17.75;13.98;;;19.40;71.00;;;;;;5117680;28;20032;-48
2023/02/15 12:41:44;;;;;;;15.32;13.70;;;20.10;72.00;;;;;;5117452;28;20037;-51
2023/02/15 12:44:18;;;;;;;13.82;12.15;;;18.90;70.90;;;;;;5117305;28;20172;-49
2023/02/15 12:47:16;;;;;;;15.27;13.63;;;19.10;72.20;;;;;;5116982;28;20416;-47
2023/02/15 12:49:43;;;;;;;14.15;12.02;;;19.30;71.30;;;;;;5117394;28;20111;-48
2023/02/15 12:52:17;;;;;;;15.68;12.32;;;19.30;72.20;;;;;;5117178;28;20079;-51
2023/02/15 12:54:44;;;;;;;15.40;13.32;;;;;;;;;;5098406;28;20048;-49
2023/02/15 12:57:29;;;;;;;14.93;12.48;;;18.70;72.00;;;;;;5117024;28;20059;-50
2023/02/15 13:00:03;;;;;;;15.48;13.80;;;18.70;73.00;;;;;;5116933;28;20546;-47
2023/02/15 13:02:46;;;;;;;18.25;15.15;;;18.50;72.80;;;;;;5116154;28;20145;-50
2023/02/15 13:05:32;;;;;;;20.75;16.17;;;18.30;73.90;;;;;;5116885;28;20395;-50
2023/02/15 13:08:02;;;;;;;17.95;14.85;;;18.30;73.70;;;;;;5117340;28;20072;-47
2023/02/15 13:11:04;;;;;;;17.77;14.15;;;18.10;73.20;;;;;;5094156;28;20048;-48
2023/02/15 13:13:34;;;;;;;14.30;12.63;;;18.30;74.30;;;;;;5077255;28;20085;-50
2023/02/15 13:16:10;;;;;;;15.68;13.73;;;17.70;73.70;;;;;;5094216;28;20048;-49
2023/02/15 13:18:45;;;;;;;14.70;12.88;;;17.50;74.00;;;;;;5094117;28;20032;-47
2023/02/15 13:21:18;;;;;;;14.98;13.05;;;17.50;74.40;;;;;;5093783;28;20110;-51
2023/02/15 13:23:58;;;;;;;16.35;13.52;;;17.30;74.90;;;;;;5093956;28;20491;-50
2023/02/15 13:26:29;;;;;;;14.45;12.50;;;17.10;74.90;;;;;;5093818;28;20047;-48
2023/02/15 13:29:24;;;;;;;15.85;12.73;;;17.40;75.30;;;;;;5093905;28;20028;-49
2023/02/15 13:31:52;;;;;;;17.55;14.25;;;17.40;75.10;;;;;;5091851;28;20052;-49
2023/02/15 13:34:34;;;;;;;21.10;15.65;;;17.90;74.40;;;;;;5093863;28;20036;-49
2023/02/15 13:37:12;;;;;;;;;;;17.40;75.00;;;;;;5094332;28;20455;-49
2023/02/15 13:39:49;;;;;;;14.63;12.63;;;17.00;74.80;;;;;;5093631;28;20426;-48